Time;durP1;ratioP1;P1;durP2;ratioP2;P2;SDS_P1;SDS_P2;PMS_P1;PMS_P2;Temp;Humidity;BMP_temperature;BMP_pressure;BME280_temperature;BME280_humidity;BME280_pressure;Samples;Min_cycle;Max_cycle;Signal;HPM_P1;HPM_P2
2022/12/23 00:00:45;;;;;;;10.73;1.93;;;8.80;99.90;;;7.80;100.00;96311.16;5040478;28;20505;-70
2022/12/23 00:03:11;;;;;;;12.25;2.15;;;8.80;99.90;;;7.76;100.00;96301.13;5038015;28;20774;-69
2022/12/23 00:05:39;;;;;;;10.18;2.90;;;8.70;99.90;;;7.73;100.00;96306.94;5040730;28;20402;-70
2022/12/23 00:08:05;;;;;;;10.10;2.50;;;8.70;99.90;;;7.78;100.00;96301.66;5040368;28;20935;-70
2022/12/23 00:10:33;;;;;;;14.50;2.30;;;8.80;99.90;;;7.84;100.00;96309.56;5038898;28;20407;-70
2022/12/23 00:15:43;;;;;;;11.05;2.10;;;8.80;99.90;;;7.81;100.00;96310.09;5038755;28;20390;-69
2022/12/23 00:18:09;;;;;;;11.80;2.10;;;8.80;99.90;;;7.84;100.00;96310.38;5038564;28;21130;-69
2022/12/23 00:20:35;;;;;;;10.30;2.30;;;8.80;99.90;;;7.83;100.00;96306.16;5018386;28;20423;-69
2022/12/23 00:23:05;;;;;;;9.55;2.40;;;8.80;99.90;;;7.83;100.00;96306.16;5038878;28;20437;-69
2022/12/23 00:25:40;;;;;;;7.57;2.33;;;8.80;99.90;;;7.80;100.00;96306.69;5040773;28;20991;-69
2022/12/23 00:28:09;;;;;;;10.43;2.40;;;8.80;99.90;;;7.87;100.00;96306.44;5040420;28;20410;-69
2022/12/23 00:30:34;;;;;;;7.15;2.13;;;8.80;99.90;;;7.84;100.00;96301.66;5035842;28;20407;-70
2022/12/23 00:33:00;;;;;;;7.63;2.38;;;8.80;99.90;;;7.75;100.00;96294.28;5038813;28;20501;-69
2022/12/23 00:35:30;;;;;;;8.47;2.30;;;8.80;99.90;;;7.80;100.00;96288.25;5040282;28;20439;-69
2022/12/23 00:37:56;;;;;;;6.43;2.28;;;8.80;99.90;;;7.81;100.00;96292.47;5036160;28;20410;-69
2022/12/23 00:43:08;;;;;;;6.80;2.10;;;8.80;99.90;;;7.88;100.00;96303.53;5038409;28;20452;-69
2022/12/23 00:45:34;;;;;;;6.68;2.00;;;8.90;99.90;;;7.93;100.00;96300.91;5038604;28;20426;-69
2022/12/23 00:50:44;;;;;;;9.40;2.27;;;8.90;99.90;;;7.88;100.00;96315.94;5038079;28;20477;-70
2022/12/23 00:53:10;;;;;;;5.40;2.00;;;8.90;99.90;;;7.90;100.00;96305.91;5037441;28;20414;-70
2022/12/23 00:55:37;;;;;;;6.18;2.10;;;8.90;99.90;;;7.94;100.00;96315.69;5040346;28;20405;-69
2022/12/23 00:58:03;;;;;;;8.70;2.00;;;8.90;99.90;;;8.03;100.00;96319.38;5039344;28;20445;-69
2022/12/23 01:06:01;;;;;;;5.68;2.00;;;9.00;99.90;;;7.96;100.00;96324.13;5036581;28;20437;-69
2022/12/23 01:08:27;;;;;;;3.65;1.80;;;8.90;99.90;;;8.05;100.00;96329.66;5038273;28;20861;-70
2022/12/23 01:10:55;;;;;;;4.60;1.60;;;9.00;99.90;;;8.09;100.00;96336.00;5040039;28;20404;-70
2022/12/23 01:13:21;;;;;;;4.28;1.60;;;9.10;99.90;;;8.09;100.00;96333.38;5038001;28;20407;-69
2022/12/23 01:15:47;;;;;;;3.80;1.60;;;9.10;99.90;;;8.13;100.00;96344.94;5038648;28;20414;-69
2022/12/23 01:18:13;;;;;;;7.07;1.90;;;9.10;99.90;;;8.11;100.00;96337.34;5040040;28;20445;-69
2022/12/23 01:20:39;;;;;;;6.47;1.75;;;9.10;99.90;;;8.18;100.00;96339.72;5038355;28;20407;-69
2022/12/23 01:23:05;;;;;;;5.10;1.60;;;9.20;99.90;;;8.11;100.00;96333.91;5037908;28;20401;-70
2022/12/23 01:25:31;;;;;;;4.30;1.80;;;9.10;99.90;;;8.19;100.00;96343.13;5022242;28;20395;-70
2022/12/23 01:27:59;;;;;;;2.85;1.50;;;9.10;99.90;;;8.21;100.00;96343.66;5038392;28;20873;-69
2022/12/23 01:30:24;;;;;;;4.65;1.65;;;9.20;99.90;;;8.20;100.00;96347.34;5038668;28;20409;-69
2022/12/23 01:32:50;;;;;;;3.73;1.40;;;9.20;99.90;;;8.20;100.00;96349.97;5039132;28;20938;-70
2022/12/23 01:35:16;;;;;;;5.03;1.58;;;9.20;99.90;;;8.23;100.00;96355.53;5035489;28;20411;-69
2022/12/23 01:37:42;;;;;;;4.90;1.60;;;9.20;99.90;;;8.20;100.00;96360.50;5038946;28;20401;-69
2022/12/23 01:40:09;;;;;;;4.38;1.60;;;9.20;99.90;;;8.22;100.00;96364.47;5039618;28;20399;-69
2022/12/23 01:42:45;;;;;;;4.23;1.50;;;9.20;99.90;;;8.23;100.00;96363.44;5037329;28;20631;-69
2022/12/23 01:45:18;;;;;;;5.32;1.67;;;9.20;99.90;;;8.26;100.00;96365.56;5037858;28;20493;-70
2022/12/23 01:47:51;;;;;;;8.37;1.40;;;9.20;99.90;;;8.26;100.00;96372.69;5039042;28;20409;-70
2022/12/23 01:50:22;;;;;;;5.97;1.67;;;9.30;99.90;;;8.30;100.00;96371.88;5035283;28;20410;-70
2022/12/23 01:52:58;;;;;;;4.47;1.30;;;9.30;99.90;;;8.32;100.00;96369.81;5039697;28;20410;-70
2022/12/23 01:55:27;;;;;;;1.80;1.50;;;9.30;99.90;;;8.38;100.00;96374.03;5021764;28;20409;-70
2022/12/23 01:57:57;;;;;;;1.85;1.25;;;9.30;99.90;;;8.33;100.00;96378.53;5041496;28;20399;-70
2022/12/23 02:09:15;;;;;;;3.80;1.15;;;9.30;99.90;;;8.41;100.00;96391.19;5043206;28;20392;-70
2022/12/23 02:11:48;;;;;;;1.60;1.30;;;9.40;99.90;;;8.52;100.00;96400.69;5040130;28;20401;-70
2022/12/23 02:17:24;;;;;;;1.97;1.10;;;9.60;99.90;;;8.70;100.00;96417.88;5043021;28;20426;-70
2022/12/23 02:20:47;;;;;;;2.70;1.10;;;9.70;99.90;;;8.64;100.00;96421.56;5042582;28;20427;-70
2022/12/23 02:24:04;;;;;;;1.98;1.10;;;9.60;99.90;;;8.59;100.00;96418.91;5032953;28;20416;-69
2022/12/23 02:26:57;;;;;;;1.88;1.10;;;9.60;99.90;;;8.62;100.00;96423.66;5041937;28;20399;-70
2022/12/23 02:30:02;;;;;;;2.47;1.10;;;9.60;99.90;;;8.64;100.00;96432.13;5039930;28;20400;-69
2022/12/23 02:32:43;;;;;;;3.83;1.08;;;9.60;99.90;;;8.65;100.00;96431.84;5040348;28;20435;-70
2022/12/23 02:35:19;;;;;;;3.28;1.10;;;9.60;99.90;;;8.66;100.00;96427.34;5041499;28;20406;-70
2022/12/23 02:37:59;;;;;;;2.42;1.10;;;9.60;99.90;;;8.68;100.00;96441.06;5040837;28;20403;-70
2022/12/23 02:40:37;;;;;;;2.50;1.10;;;9.60;99.90;;;8.80;100.00;96445.03;5040620;28;20417;-70
2022/12/23 02:43:11;;;;;;;1.65;1.00;;;9.70;99.90;;;8.72;100.00;96447.44;5038840;28;20407;-70
2022/12/23 02:45:44;;;;;;;2.00;1.13;;;9.70;99.90;;;8.68;100.00;96449.00;5038327;28;20395;-70
2022/12/23 02:48:15;;;;;;;3.28;1.02;;;9.70;99.90;;;8.72;100.00;96450.84;5040966;28;20394;-70
2022/12/23 02:50:44;;;;;;;1.50;1.00;;;9.70;99.90;;;8.67;100.00;96461.38;5038754;28;20494;-70
2022/12/23 02:53:16;;;;;;;1.10;0.90;;;9.70;99.90;;;8.67;100.00;96455.31;5040054;28;20413;-70
2022/12/23 02:55:45;;;;;;;1.80;1.00;;;9.70;99.90;;;8.66;100.00;96454.53;5039193;28;20395;-67
2022/12/23 02:58:15;;;;;;;1.23;1.00;;;9.70;99.90;;;8.65;100.00;96467.97;5040556;28;20417;-71
2022/12/23 03:00:43;;;;;;;1.70;1.00;;;9.70;99.90;;;8.71;100.00;96472.22;5038606;28;20415;-70
2022/12/23 03:03:11;;;;;;;0.90;0.90;;;9.70;99.90;;;8.70;100.00;96479.34;5039448;28;20398;-70
2022/12/23 03:05:41;;;;;;;1.90;0.95;;;9.70;99.90;;;8.72;100.00;96479.84;5042289;28;20929;-68
2022/12/23 03:08:15;;;;;;;1.80;1.10;;;9.70;99.90;;;8.72;100.00;96479.84;5041797;28;20762;-69
2022/12/23 03:10:57;;;;;;;1.80;1.00;;;9.70;99.90;;;8.77;100.00;96476.47;5038147;28;20406;-71
2022/12/23 03:13:47;;;;;;;3.88;1.00;;;9.70;99.90;;;8.75;100.00;96478.56;5038422;28;20889;-71
2022/12/23 03:16:22;;;;;;;1.42;1.10;;;9.70;99.90;;;8.75;100.00;96483.84;5041607;28;20401;-70
2022/12/23 03:19:06;;;;;;;3.88;1.10;;;9.70;99.90;;;8.72;100.00;96481.72;5041469;28;20459;-71
2022/12/23 03:21:41;;;;;;;2.30;1.30;;;9.70;99.90;;;8.71;100.00;96491.50;5040705;28;20417;-71
2022/12/23 03:24:19;;;;;;;1.38;1.20;;;9.70;99.90;;;8.70;100.00;96491.75;5040938;28;20407;-70
2022/12/23 03:26:53;;;;;;;2.80;1.20;;;9.70;99.90;;;8.72;100.00;96498.31;5039366;28;20495;-70
2022/12/23 03:29:27;;;;;;;1.90;0.95;;;9.70;99.90;;;8.72;100.00;96498.31;5037723;28;20422;-71
2022/12/23 03:31:57;;;;;;;1.58;1.10;;;9.70;99.90;;;8.72;100.00;96508.13;5058796;22;20483;-69
2022/12/23 03:34:30;;;;;;;2.20;1.10;;;9.70;99.90;;;8.74;100.00;96514.69;5060840;28;20445;-70
2022/12/23 03:37:01;;;;;;;4.65;1.30;;;9.70;99.90;;;8.72;100.00;96513.38;5061619;28;20411;-70
2022/12/23 03:39:32;;;;;;;4.63;1.13;;;9.70;99.90;;;8.72;100.00;96511.53;5060967;28;20413;-70
2022/12/23 03:42:05;;;;;;;6.00;1.20;;;9.70;99.90;;;8.69;100.00;96516.53;5050626;28;20459;-70
2022/12/23 03:44:36;;;;;;;2.40;1.20;;;9.70;99.90;;;8.70;100.00;96515.50;5039571;28;20744;-70
2022/12/23 03:47:08;;;;;;;4.75;1.10;;;9.70;99.90;;;8.76;100.00;96514.44;5038836;28;20979;-70
2022/12/23 03:49:41;;;;;;;3.00;1.20;;;9.70;99.90;;;8.76;100.00;96509.16;5039432;28;20402;-70
2022/12/23 03:52:12;;;;;;;3.72;1.40;;;9.80;99.90;;;8.82;100.00;96523.94;5039394;28;20402;-70
2022/12/23 03:54:44;;;;;;;2.15;1.10;;;9.80;99.90;;;8.81;100.00;96517.09;5039236;28;20395;-70
2022/12/23 03:57:12;;;;;;;1.60;1.10;;;9.80;99.90;;;8.76;100.00;96511.81;5039670;28;20478;-69
2022/12/23 03:59:42;;;;;;;1.30;1.20;;;9.80;99.90;;;8.74;100.00;96514.69;5039438;28;20419;-70
2022/12/23 04:02:17;;;;;;;2.70;1.08;;;9.70;99.90;;;8.77;100.00;96516.84;5039193;28;20402;-70
2022/12/23 04:05:09;;;;;;;1.00;0.90;;;9.80;99.90;;;8.76;100.00;96519.72;5039487;28;20410;-70
2022/12/23 04:07:39;;;;;;;1.65;1.00;;;9.80;99.90;;;8.76;100.00;96517.88;5041166;28;20429;-69
2022/12/23 04:10:08;;;;;;;1.23;0.90;;;9.70;99.90;;;8.73;100.00;96525.50;5040161;28;20441;-69
2022/12/23 04:12:36;;;;;;;1.02;0.93;;;9.70;99.90;;;8.83;100.00;96517.63;5038222;28;20766;-69
2022/12/23 04:15:03;;;;;;;1.50;1.10;;;9.80;99.90;;;8.79;100.00;96514.72;5039944;28;20398;-69
2022/12/23 04:17:29;;;;;;;0.70;0.70;;;9.80;99.90;;;8.77;100.00;96519.47;5040497;28;20929;-68
2022/12/23 04:19:56;;;;;;;1.20;0.97;;;9.80;99.90;;;8.87;100.00;96521.34;5038765;28;20422;-68
2022/12/23 04:22:22;;;;;;;0.90;0.90;;;9.80;99.90;;;8.95;100.00;96515.53;5039544;28;20397;-68
2022/12/23 04:24:48;;;;;;;1.75;1.00;;;9.90;99.90;;;8.96;100.00;96532.16;5040111;28;20899;-68
2022/12/23 04:27:16;;;;;;;1.70;1.10;;;9.90;99.90;;;8.99;100.00;96529.81;5038636;28;20407;-69
2022/12/23 04:29:42;;;;;;;2.33;0.90;;;10.00;99.90;;;9.04;100.00;96535.09;5040397;28;20483;-69
2022/12/23 04:32:08;;;;;;;2.55;1.00;;;10.00;99.90;;;9.13;100.00;96536.16;5038983;28;20484;-69
2022/12/23 04:34:34;;;;;;;0.90;0.90;;;10.00;99.90;;;9.13;100.00;96527.44;5038433;28;20411;-69
2022/12/23 04:37:01;;;;;;;2.17;1.00;;;10.10;99.90;;;9.12;100.00;96528.50;5040533;28;20770;-68
2022/12/23 04:39:27;;;;;;;3.38;1.00;;;10.10;99.90;;;9.15;100.00;96525.34;5039657;28;20492;-69
2022/12/23 04:41:53;;;;;;;1.10;1.05;;;10.10;99.90;;;9.08;100.00;96528.25;5037987;28;20908;-69
2022/12/23 04:44:19;;;;;;;1.48;1.00;;;10.10;99.90;;;9.08;100.00;96540.66;5040241;28;20492;-69
2022/12/23 04:46:45;;;;;;;2.57;1.10;;;10.10;99.90;;;9.10;100.00;96547.22;5041435;28;20409;-69
2022/12/23 04:49:11;;;;;;;2.20;1.05;;;10.00;99.90;;;9.05;100.00;96533.22;5045649;28;20398;-69
2022/12/23 04:51:37;;;;;;;1.00;1.00;;;10.00;99.90;;;8.99;100.00;96545.63;5042556;28;20893;-68
2022/12/23 04:54:04;;;;;;;2.20;1.10;;;10.00;99.90;;;8.93;100.00;96558.03;5038858;28;20414;-69
2022/12/23 04:56:30;;;;;;;1.58;1.20;;;9.90;99.90;;;8.99;100.00;96561.47;5038788;28;20420;-68
2022/12/23 04:58:56;;;;;;;1.27;1.17;;;9.90;99.90;;;8.96;100.00;96567.25;5040370;28;20453;-69
2022/12/23 05:01:22;;;;;;;1.40;1.27;;;9.90;99.90;;;8.95;100.00;96575.47;5038217;28;20463;-69
2022/12/23 05:03:48;;;;;;;1.40;1.30;;;9.90;99.90;;;8.88;100.00;96578.31;5020585;28;20954;-68
2022/12/23 05:06:13;;;;;;;1.50;1.30;;;9.90;99.90;;;8.88;100.00;96573.84;5040450;28;20485;-69
2022/12/23 05:08:39;;;;;;;1.80;1.40;;;9.90;99.90;;;8.94;100.00;96566.75;5038500;28;20403;-69
2022/12/23 05:11:07;;;;;;;1.35;1.25;;;9.90;99.90;;;8.93;100.00;96558.03;5039458;28;20919;-69
2022/12/23 05:13:32;;;;;;;1.48;1.27;;;9.90;99.90;;;8.93;100.00;96563.31;5039241;28;20425;-69
2022/12/23 05:15:58;;;;;;;1.30;1.20;;;9.90;99.90;;;8.96;100.00;96569.09;5038220;28;20967;-69
2022/12/23 05:18:24;;;;;;;1.27;1.17;;;9.90;99.90;;;8.97;100.00;96573.34;5039359;28;20464;-69
2022/12/23 05:20:50;;;;;;;1.20;1.10;;;9.90;99.90;;;8.97;100.00;96575.97;5021890;28;20553;-69
2022/12/23 05:23:16;;;;;;;1.30;1.20;;;10.00;99.90;;;8.99;100.00;96581.81;5037384;28;20399;-69
2022/12/23 05:25:42;;;;;;;2.50;1.40;;;10.00;99.90;;;8.96;100.00;96587.59;5040820;28;20401;-69
2022/12/23 05:28:09;;;;;;;2.33;1.50;;;10.00;99.90;;;8.93;100.00;96584.44;5043346;28;20407;-69
2022/12/23 05:30:35;;;;;;;2.30;1.73;;;9.90;99.90;;;8.93;100.00;96594.19;5041951;28;20426;-68
2022/12/23 05:33:01;;;;;;;1.20;1.10;;;9.90;99.90;;;8.95;100.00;96592.06;5042879;28;20489;-68
2022/12/23 05:35:27;;;;;;;1.20;1.10;;;9.90;99.90;;;8.93;100.00;96589.72;5043124;28;20883;-69
2022/12/23 05:37:53;;;;;;;5.75;1.27;;;9.90;99.90;;;8.89;100.00;96574.63;5042076;28;20396;-68
2022/12/23 05:40:20;;;;;;;4.33;1.30;;;9.80;99.90;;;8.87;100.00;96569.63;5041952;28;20529;-68
2022/12/23 05:42:45;;;;;;;2.28;1.20;;;9.90;99.90;;;8.89;100.00;96580.72;5042162;28;20471;-68
2022/12/23 05:45:13;;;;;;;2.50;1.20;;;9.80;99.90;;;8.88;100.00;96583.59;5043364;28;20908;-68
2022/12/23 05:47:38;;;;;;;1.23;1.10;;;9.90;99.90;;;8.90;100.00;96590.22;5041749;28;20507;-69
2022/12/23 05:50:06;;;;;;;1.20;1.10;;;9.90;99.90;;;8.92;100.00;96595.25;5043181;28;20508;-68
2022/12/23 05:52:32;;;;;;;2.25;1.42;;;9.90;99.90;;;8.90;100.00;96597.34;5042612;28;20406;-68
2022/12/23 05:54:58;;;;;;;1.90;1.30;;;9.90;99.90;;;8.84;100.00;96596.53;5041391;28;20779;-69
2022/12/23 05:57:24;;;;;;;3.53;1.50;;;9.80;99.90;;;8.82;100.00;96597.84;5042971;28;20405;-68
2022/12/23 05:59:50;;;;;;;2.67;1.30;;;9.80;99.90;;;8.85;100.00;96599.97;5042957;28;20422;-68
2022/12/23 06:02:17;;;;;;;2.60;1.20;;;9.80;99.90;;;8.88;100.00;96594.97;5040656;28;20836;-68
2022/12/23 06:04:43;;;;;;;2.92;1.40;;;9.90;99.90;;;8.88;100.00;96594.16;5043181;28;20899;-68
2022/12/23 06:07:09;;;;;;;1.83;1.20;;;9.90;99.90;;;8.87;100.00;96593.38;5042565;28;20407;-68
2022/12/23 06:09:34;;;;;;;3.55;1.40;;;9.90;99.90;;;8.82;100.00;96601.28;5040964;28;20445;-68
2022/12/23 06:12:00;;;;;;;3.83;1.40;;;9.80;99.90;;;8.77;100.00;96601.25;5042652;28;20405;-68
2022/12/23 06:14:26;;;;;;;2.58;1.30;;;9.70;99.90;;;8.77;100.00;96597.84;5041870;28;20407;-68
2022/12/23 06:16:52;;;;;;;1.87;1.43;;;9.80;99.90;;;8.78;100.00;96596.78;5041614;28;20451;-68
2022/12/23 06:19:19;;;;;;;1.60;1.10;;;9.70;99.90;;;8.78;100.00;96602.84;5043660;28;20502;-68
2022/12/23 06:21:45;;;;;;;3.47;1.33;;;9.80;99.90;;;8.78;100.00;96600.22;5041410;28;20415;-68
2022/12/23 06:24:11;;;;;;;5.60;1.60;;;9.80;99.90;;;8.75;100.00;96595.44;5041609;28;20441;-68
2022/12/23 06:26:37;;;;;;;3.75;1.40;;;9.70;99.90;;;8.71;100.00;96594.38;5042750;28;20409;-68
2022/12/23 06:29:03;;;;;;;2.25;1.35;;;9.70;99.90;;;8.70;100.00;96597.28;5041584;28;20403;-69
2022/12/23 06:31:29;;;;;;;3.08;1.70;;;9.70;99.90;;;8.68;100.00;96599.38;5040960;28;20413;-67
2022/12/23 06:33:55;;;;;;;1.53;1.40;;;9.70;99.90;;;8.72;100.00;96603.88;5042701;28;20924;-67
2022/12/23 06:36:22;;;;;;;5.00;1.70;;;9.70;99.90;;;8.70;100.00;96605.19;5042863;28;20401;-67
2022/12/23 06:38:48;;;;;;;1.90;1.42;;;9.70;99.90;;;8.72;100.00;96611.00;5040879;28;20485;-68
2022/12/23 06:41:14;;;;;;;4.43;2.10;;;9.70;99.90;;;8.70;100.00;96606.00;5040346;28;20409;-68
2022/12/23 06:43:40;;;;;;;6.80;2.10;;;9.70;99.90;;;8.68;100.00;96596.72;5044979;28;20582;-69
2022/12/23 06:46:06;;;;;;;5.20;1.70;;;9.70;99.90;;;8.70;100.00;96613.09;5042916;28;20894;-68
2022/12/23 06:48:32;;;;;;;4.05;1.90;;;9.70;99.90;;;8.70;100.00;96607.84;5044360;28;20407;-69
2022/12/23 06:51:01;;;;;;;6.07;1.77;;;9.70;99.90;;;8.70;100.00;96608.63;5042977;28;20794;-68
2022/12/23 06:53:28;;;;;;;10.63;2.40;;;9.70;99.90;;;8.68;100.00;96605.44;5040510;28;20410;-69
2022/12/23 06:55:58;;;;;;;5.93;2.20;;;9.70;99.90;;;8.66;100.00;96607.53;5040882;28;20408;-69
2022/12/23 06:58:24;;;;;;;5.18;2.05;;;9.70;99.90;;;8.65;100.00;96605.16;5040972;28;20412;-68
2022/12/23 07:00:50;;;;;;;6.03;2.20;;;9.70;99.90;;;8.63;100.00;96612.56;5039489;28;20494;-69
2022/12/23 07:03:16;;;;;;;8.52;2.67;;;9.60;99.90;;;8.62;100.00;96619.66;5024074;28;20920;-69
2022/12/23 07:05:46;;;;;;;6.83;2.30;;;9.60;99.90;;;8.58;100.00;96617.78;5043170;28;20769;-69
2022/12/23 07:08:12;;;;;;;5.70;2.00;;;9.60;99.90;;;8.57;100.00;96618.84;5022947;28;20417;-70
2022/12/23 07:10:39;;;;;;;7.30;2.30;;;9.60;99.90;;;8.56;100.00;96619.91;5041782;28;20398;-70
2022/12/23 07:13:05;;;;;;;6.05;2.53;;;9.60;99.90;;;8.54;100.00;96628.06;5038352;28;20501;-69
2022/12/23 07:15:31;;;;;;;12.33;3.03;;;9.60;99.90;;;8.53;100.00;96632.53;5044003;28;20413;-70
2022/12/23 07:17:57;;;;;;;9.05;2.47;;;9.50;99.90;;;8.50;100.00;96635.69;5042774;28;20413;-69
2022/12/23 07:20:23;;;;;;;10.57;3.15;;;9.50;99.90;;;8.46;100.00;96633.81;5039949;28;20426;-68
2022/12/23 07:22:49;;;;;;;8.40;2.70;;;9.50;99.90;;;8.45;100.00;96627.75;5040307;28;20915;-71
2022/12/23 07:25:15;;;;;;;12.88;3.28;;;9.50;99.90;;;8.46;100.00;96634.63;5041784;28;20507;-68
2022/12/23 07:27:42;;;;;;;10.90;3.00;;;9.50;99.90;;;8.44;100.00;96634.06;5040171;28;20407;-69
2022/12/23 07:30:09;;;;;;;19.70;6.90;;;9.40;99.90;;;8.42;100.00;96635.41;5041439;28;20397;-70
2022/12/23 07:32:35;;;;;;;7.30;2.70;;;9.40;99.90;;;8.41;100.00;96631.16;5040721;28;20889;-69
2022/12/23 07:35:01;;;;;;;9.13;2.90;;;9.40;99.90;;;8.42;100.00;96632.75;5039714;28;20403;-69
2022/12/23 07:37:27;;;;;;;7.07;2.97;;;9.40;99.90;;;8.43;100.00;96639.59;5041126;28;20454;-70
2022/12/23 07:39:53;;;;;;;13.03;3.03;;;9.50;99.90;;;8.46;100.00;96639.09;5040998;28;20415;-69
2022/12/23 07:42:19;;;;;;;7.93;2.40;;;9.50;99.90;;;8.48;100.00;96629.09;5038638;28;20734;-69
2022/12/23 07:44:46;;;;;;;5.03;2.30;;;9.50;99.90;;;8.51;100.00;96629.38;5040930;28;20460;-70
2022/12/23 07:47:12;;;;;;;8.50;2.42;;;9.50;99.90;;;8.54;100.00;96634.13;5040766;28;20412;-70
2022/12/23 07:49:38;;;;;;;3.75;1.90;;;9.50;99.90;;;8.58;100.00;96631.78;5039468;28;20406;-69
2022/12/23 07:52:04;;;;;;;6.20;2.33;;;9.60;99.90;;;8.58;100.00;96637.03;5040371;28;20424;-69
2022/12/23 07:54:29;;;;;;;7.38;2.30;;;9.60;99.90;;;8.60;100.00;96636.78;5039962;28;20442;-69
2022/12/23 07:56:56;;;;;;;4.90;2.10;;;9.60;99.90;;;8.62;100.00;96645.25;5039493;28;20409;-69
2022/12/23 07:59:25;;;;;;;4.80;1.90;;;9.60;99.90;;;8.66;100.00;96652.38;5039418;28;20521;-69
2022/12/23 08:01:52;;;;;;;3.47;2.00;;;9.60;99.90;;;8.69;100.00;96643.97;5039240;28;20460;-69
2022/12/23 08:04:18;;;;;;;3.45;1.60;;;9.70;99.90;;;8.74;100.00;96646.63;5041074;28;20397;-68
2022/12/23 08:06:44;;;;;;;5.63;1.90;;;9.70;99.90;;;8.75;100.00;96656.13;5039439;28;20399;-68
2022/12/23 08:09:10;;;;;;;3.27;1.80;;;9.70;99.90;;;8.76;100.00;96660.38;5040166;28;20858;-69
2022/12/23 08:11:36;;;;;;;3.97;1.58;;;9.70;99.90;;;8.81;100.00;96654.31;5040185;28;20911;-69
2022/12/23 08:14:01;;;;;;;3.40;1.70;;;9.80;99.90;;;8.83;100.00;96665.41;5038672;28;20494;-69
2022/12/23 08:16:27;;;;;;;10.33;1.50;;;9.80;99.90;;;8.84;100.00;96667.78;5040453;28;21193;-70
2022/12/23 08:18:54;;;;;;;3.58;1.55;;;9.80;99.90;;;8.83;100.00;96679.41;5040401;28;20414;-69
2022/12/23 08:21:20;;;;;;;5.38;1.67;;;9.80;99.90;;;8.84;100.00;96674.91;5020356;28;20411;-69
2022/12/23 08:23:47;;;;;;;3.07;1.37;;;9.80;99.90;;;8.91;100.00;96678.13;5039991;28;20413;-69
2022/12/23 08:26:16;;;;;;;4.68;1.60;;;9.80;99.90;;;8.92;100.00;96680.50;5022442;28;20920;-69
2022/12/23 08:28:43;;;;;;;3.20;1.80;;;9.90;99.90;;;8.90;100.00;96672.03;5038865;28;20406;-70
2022/12/23 08:31:12;;;;;;;2.97;1.60;;;9.90;99.90;;;8.92;100.00;96669.94;5039501;28;20827;-69
2022/12/23 08:33:40;;;;;;;2.78;1.70;;;9.90;99.90;;;8.96;100.00;96667.56;5040798;28;20828;-69
2022/12/23 08:36:12;;;;;;;2.88;1.50;;;9.90;99.90;;;9.03;100.00;96667.31;5038681;28;20406;-69
2022/12/23 08:38:38;;;;;;;4.13;1.60;;;10.00;99.90;;;9.06;100.00;96678.19;5038446;28;20419;-69
2022/12/23 08:41:08;;;;;;;4.57;1.80;;;10.00;99.90;;;9.06;100.00;96664.97;5040434;28;20408;-69
2022/12/23 08:43:34;;;;;;;6.67;1.57;;;10.00;99.90;;;9.04;100.00;96656.50;5039380;28;20796;-69
2022/12/23 08:46:00;;;;;;;5.75;1.60;;;10.00;99.90;;;9.04;100.00;96659.16;5038439;28;20407;-69
2022/12/23 08:48:26;;;;;;;3.00;1.40;;;10.00;99.90;;;9.03;100.00;96654.13;5040211;28;20401;-69
2022/12/23 08:50:52;;;;;;;2.90;1.60;;;10.00;99.90;;;9.01;100.00;96656.25;5039759;28;20435;-69
2022/12/23 08:53:19;;;;;;;4.65;1.90;;;10.00;99.90;;;8.98;100.00;96660.19;5037687;28;20469;-69
2022/12/23 08:55:47;;;;;;;3.30;1.73;;;10.00;99.90;;;8.98;100.00;96654.91;5040085;28;20448;-69
2022/12/23 08:58:14;;;;;;;3.45;1.95;;;10.00;99.90;;;9.01;100.00;96653.63;5040153;28;20468;-68
2022/12/23 09:00:40;;;;;;;7.28;1.83;;;10.00;99.90;;;9.04;100.00;96642.53;5037730;28;20419;-68
2022/12/23 09:03:07;;;;;;;4.22;2.30;;;10.00;99.90;;;9.05;100.00;96663.38;5039032;28;20405;-69
2022/12/23 09:05:37;;;;;;;5.90;2.40;;;10.00;99.90;;;9.08;100.00;96656.81;5039593;28;20399;-68
2022/12/23 09:08:03;;;;;;;9.75;5.55;;;10.00;99.90;;;9.10;100.00;96654.69;5038421;28;20478;-69
2022/12/23 09:10:31;;;;;;;6.83;2.33;;;10.10;99.90;;;9.15;100.00;96668.72;5039179;28;20436;-70
2022/12/23 09:12:56;;;;;;;3.35;1.85;;;10.10;99.90;;;9.17;100.00;96668.47;5021542;28;20407;-69
2022/12/23 09:15:22;;;;;;;7.47;2.80;;;10.10;99.90;;;9.12;100.00;96663.13;5038143;28;20912;-70
2022/12/23 09:17:48;;;;;;;9.17;2.80;;;10.10;99.90;;;9.09;100.00;96664.47;5039438;28;20444;-70
2022/12/23 09:20:14;;;;;;;7.85;3.03;;;10.10;99.90;;;9.17;100.00;96671.09;5039524;28;20418;-70
2022/12/23 09:22:40;;;;;;;7.40;2.80;;;10.10;99.90;;;9.16;100.00;96665.03;5037244;28;20414;-70
2022/12/23 09:25:07;;;;;;;13.77;3.07;;;10.10;99.90;;;9.14;100.00;96667.13;5039784;28;20479;-69
2022/12/23 09:27:34;;;;;;;9.13;3.30;;;10.10;99.90;;;9.12;100.00;96669.22;5039624;28;20445;-69
2022/12/23 09:30:01;;;;;;;6.82;2.75;;;10.10;99.90;;;9.14;100.00;96661.03;5038070;28;20410;-70
2022/12/23 09:32:27;;;;;;;10.60;3.05;;;10.10;99.90;;;9.19;100.00;96653.91;5035432;23;20965;-75
2022/12/23 09:34:53;;;;;;;7.32;3.05;;;10.20;99.90;;;9.20;100.00;96657.34;5020178;28;20508;-75
2022/12/23 09:37:19;;;;;;;9.45;3.33;;;10.20;99.90;;;9.22;100.00;96661.34;5040162;28;20524;-75
2022/12/23 09:39:45;;;;;;;6.75;3.00;;;10.20;99.90;;;9.26;100.00;96643.91;5038211;28;20429;-75
2022/12/23 09:42:29;;;;;;;10.18;3.58;;;10.20;99.90;;;9.24;100.00;96639.97;5031568;28;20406;-75
2022/12/23 09:45:15;;;;;;;12.27;4.00;;;10.20;99.90;;;9.27;100.00;96640.22;5019713;28;20768;-75
2022/12/23 09:47:43;;;;;;;7.38;3.40;;;10.30;99.90;;;9.29;100.00;96626.75;5020230;28;20403;-75
2022/12/23 09:50:20;;;;;;;9.23;3.40;;;10.30;99.90;;;9.35;100.00;96624.91;5018728;28;20411;-74
2022/12/23 09:52:57;;;;;;;7.40;3.30;;;10.30;99.90;;;9.36;100.00;96622.00;5017456;28;20412;-75
2022/12/23 09:55:30;;;;;;;5.93;3.00;;;10.30;99.90;;;9.38;100.00;96619.13;5018057;28;20409;-74
2022/12/23 09:58:00;;;;;;;5.75;2.83;;;10.30;99.90;;;9.43;100.00;96627.03;5000618;28;20509;-75
2022/12/23 10:00:35;;;;;;;7.97;3.22;;;10.40;99.90;;;9.41;100.00;96626.50;5018189;28;20983;-75
2022/12/23 10:03:18;;;;;;;8.90;3.00;;;10.40;99.90;;;9.42;100.00;96618.31;5016943;28;20412;-75
2022/12/23 10:05:57;;;;;;;7.15;2.58;;;10.40;99.90;;;9.44;100.00;96616.22;5017449;28;20405;-74
2022/12/23 10:08:30;;;;;;;4.50;2.47;;;10.40;99.90;;;9.44;100.00;96605.66;5019952;28;20457;-75
2022/12/23 10:11:01;;;;;;;7.82;2.58;;;10.40;99.90;;;9.45;100.00;96604.59;5019649;28;20489;-75
2022/12/23 10:13:34;;;;;;;5.00;3.08;;;10.40;99.90;;;9.44;100.00;96602.22;5019317;28;20898;-74
2022/12/23 10:16:06;;;;;;;9.57;3.08;;;10.40;99.90;;;9.44;100.00;96608.28;5021393;28;20456;-74
2022/12/23 10:18:46;;;;;;;7.80;3.05;;;10.40;99.90;;;9.47;100.00;96610.41;5022430;28;20410;-75
2022/12/23 10:21:21;;;;;;;7.90;2.95;;;10.40;99.90;;;9.49;100.00;96618.84;5021890;28;20405;-74
2022/12/23 10:23:52;;;;;;;3.60;2.37;;;10.50;99.90;;;9.53;100.00;96614.66;5021568;28;20428;-74
2022/12/23 10:26:23;;;;;;;4.00;2.25;;;10.50;99.90;;;9.59;100.00;96604.88;5021479;28;20399;-74
2022/12/23 10:28:53;;;;;;;5.90;2.45;;;10.50;99.90;;;9.61;100.00;96594.84;5021948;28;20404;-75
2022/12/23 10:31:33;;;;;;;5.18;2.42;;;10.60;99.90;;;9.63;100.00;96600.63;5002841;28;20424;-74
2022/12/23 10:34:11;;;;;;;3.28;2.10;;;10.60;99.90;;;9.66;100.00;96595.63;5003180;28;20456;-74
2022/12/23 10:36:49;;;;;;;3.58;1.80;;;10.60;99.90;;;9.69;100.00;96589.81;5022940;28;20397;-74
2022/12/23 10:39:26;;;;;;;4.13;1.65;;;10.70;99.90;;;9.73;100.00;96584.00;5022293;28;20479;-74
2022/12/23 10:42:07;;;;;;;5.68;2.00;;;10.70;99.90;;;9.68;100.00;96585.59;5021245;28;20769;-75
2022/12/23 10:45:01;;;;;;;2.20;1.60;;;10.70;99.90;;;9.75;100.00;96573.97;5022151;28;20429;-75
2022/12/23 10:47:45;;;;;;;2.50;1.50;;;10.70;99.90;;;9.77;100.00;96577.13;5026498;28;20480;-75
2022/12/23 10:50:33;;;;;;;3.07;1.57;;;10.70;99.90;;;9.77;100.00;96577.94;5020234;28;20411;-76
2022/12/23 10:53:03;;;;;;;2.30;1.50;;;10.70;99.90;;;9.78;100.00;96576.84;5019011;28;20407;-75
2022/12/23 10:55:34;;;;;;;3.67;1.48;;;10.70;99.90;;;9.77;100.00;96559.44;5021537;28;20413;-73
2022/12/23 10:58:08;;;;;;;4.95;1.30;;;10.70;99.90;;;9.80;100.00;96558.09;5020690;28;20450;-74